Date,TemperatureHighF,TemperatureAvgF,TemperatureLowF,DewpointHighF,DewpointAvgF,DewpointLowF,HumidityHigh,HumidityAvg,HumidityLow,PressureMaxIn,PressureMinIn,WindSpeedMaxMPH,WindSpeedAvgMPH,GustSpeedMaxMPH,PrecipitationSumIn
2013-2-1,37.2,27.8,11.7,18.3,12.4,1.5,66,53,45,30.48,30.20,0,0,0,0.00
2013-2-2,50.4,41.5,27.7,34.2,28.7,15.3,70,61,52,30.23,30.17,0,0,0,0.00
2013-2-3,50.9,44.0,34.7,30.0,25.8,23.5,72,50,39,30.29,30.01,0,0,0,0.00
2013-2-4,59.9,49.7,37.2,42.7,34.6,24.8,67,56,44,29.99,29.86,0,0,0,0.00
2013-2-5,61.3,48.8,29.8,40.8,32.3,22.4,76,55,38,30.11,29.96,0,0,0,0.00
2013-2-6,59.5,50.0,33.4,39.0,34.7,24.7,71,56,46,30.19,30.02,0,0,0,0.00
2013-2-7,53.8,49.8,41.4,47.4,43.1,35.1,86,78,67,30.12,29.92,0,0,0,0.00
2013-2-8,49.8,40.0,32.9,35.5,30.2,26.6,83,68,55,30.34,30.14,0,0,0,0.00
2013-2-9,44.4,38.9,33.1,33.4,30.4,26.3,83,72,60,30.27,29.92,0,0,0,0.00
2013-2-10,60.3,52.2,38.8,51.9,38.0,26.5,88,61,39,30.00,29.68,0,0,0,0.00
2013-2-11,50.9,42.2,32.2,30.2,26.3,22.4,70,54,41,30.20,30.05,0,0,0,0.00
2013-2-12,47.5,40.6,28.6,33.1,29.2,20.4,78,64,53,30.18,29.96,0,0,0,0.00
2013-2-13,48.6,40.2,33.6,36.4,31.6,28.3,84,72,58,30.01,29.93,0,0,0,0.00
2013-2-14,55.4,44.8,34.3,35.2,29.8,24.1,71,56,41,30.17,29.95,0,0,0,0.00
2013-2-15,43.3,35.4,27.1,29.5,18.9,11.4,73,52,35,30.33,30.16,0,0,0,0.00
2013-2-16,40.8,32.3,24.6,22.5,18.3,11.6,71,56,45,30.33,30.15,0,0,0,0.00
2013-2-17,36.0,36.0,36.0,20.0,20.0,20.0,52,52,52,30.15,30.15,0,0,0,0.00
2013-2-18,36.0,36.0,36.0,20.0,20.0,20.0,52,52,52,30.15,30.15,0,0,0,0.00
2013-2-19,36.0,36.0,36.0,20.0,20.0,20.0,52,52,52,30.15,30.15,0,0,0,0.00
2013-2-20,36.0,36.0,36.0,20.0,20.0,20.0,52,52,52,30.15,30.15,0,0,0,0.00
2013-2-21,36.0,36.0,36.0,20.0,20.0,20.0,52,52,52,30.15,30.15,0,0,0,0.00
2013-2-22,36.0,36.0,36.0,20.0,20.0,20.0,52,52,52,30.15,30.15,0,0,0,0.00
2013-2-23,36.0,36.0,36.0,20.0,20.0,20.0,52,52,52,30.15,30.15,0,0,0,0.00
2013-2-24,36.0,36.0,36.0,20.0,20.0,20.0,52,52,52,30.15,30.15,0,0,0,0.00
2013-2-25,36.0,36.0,36.0,20.0,20.0,20.0,52,52,52,30.15,30.15,0,0,0,0.00
2013-2-26,36.0,36.0,36.0,20.0,20.0,20.0,52,52,52,30.15,30.15,0,0,0,0.00
2013-2-27,36.0,36.0,36.0,20.0,20.0,20.0,52,52,52,30.15,30.15,0,0,0,0.00
2013-2-28,36.0,35.7,32.5,25.9,20.6,20.0,72,54,52,30.17,30.15,0,0,0,0.00